sensor_id;sensor_type;location;lat;lon;timestamp;P1;durP1;ratioP1;P2;durP2;ratioP2
74229;SDS011;62589;12.568;99.958;2023-02-19T00:02:08;29.95;;;21.98;;
74229;SDS011;62589;12.568;99.958;2023-02-19T00:04:35;29.23;;;22.50;;
74229;SDS011;62589;12.568;99.958;2023-02-19T00:07:03;33.22;;;22.48;;
74229;SDS011;62589;12.568;99.958;2023-02-19T00:09:30;42.00;;;23.25;;
74229;SDS011;62589;12.568;99.958;2023-02-19T00:11:57;31.80;;;23.48;;
74229;SDS011;62589;12.568;99.958;2023-02-19T00:14:24;33.42;;;23.55;;
74229;SDS011;62589;12.568;99.958;2023-02-19T00:16:50;38.10;;;24.58;;
74229;SDS011;62589;12.568;99.958;2023-02-19T00:19:18;37.75;;;24.33;;
74229;SDS011;62589;12.568;99.958;2023-02-19T00:21:47;31.92;;;22.70;;
74229;SDS011;62589;12.568;99.958;2023-02-19T00:24:19;30.73;;;20.85;;
74229;SDS011;62589;12.568;99.958;2023-02-19T00:26:47;29.35;;;21.00;;
74229;SDS011;62589;12.568;99.958;2023-02-19T00:29:15;30.90;;;21.17;;
74229;SDS011;62589;12.568;99.958;2023-02-19T00:31:44;28.83;;;20.75;;
74229;SDS011;62589;12.568;99.958;2023-02-19T00:34:12;29.13;;;21.45;;
74229;SDS011;62589;12.568;99.958;2023-02-19T00:36:39;29.15;;;20.83;;
74229;SDS011;62589;12.568;99.958;2023-02-19T00:39:06;27.45;;;19.40;;
74229;SDS011;62589;12.568;99.958;2023-02-19T00:41:33;26.02;;;20.20;;
74229;SDS011;62589;12.568;99.958;2023-02-19T00:44:00;28.73;;;18.83;;
74229;SDS011;62589;12.568;99.958;2023-02-19T00:46:37;26.02;;;19.13;;
74229;SDS011;62589;12.568;99.958;2023-02-19T00:49:05;26.33;;;19.05;;
74229;SDS011;62589;12.568;99.958;2023-02-19T00:51:34;29.35;;;20.33;;
74229;SDS011;62589;12.568;99.958;2023-02-19T00:54:03;23.20;;;17.73;;
74229;SDS011;62589;12.568;99.958;2023-02-19T00:56:30;26.20;;;18.05;;
74229;SDS011;62589;12.568;99.958;2023-02-19T00:58:56;23.25;;;18.63;;
74229;SDS011;62589;12.568;99.958;2023-02-19T01:01:23;20.83;;;17.50;;
74229;SDS011;62589;12.568;99.958;2023-02-19T01:03:49;23.75;;;17.83;;
74229;SDS011;62589;12.568;99.958;2023-02-19T01:06:17;23.88;;;17.77;;
74229;SDS011;62589;12.568;99.958;2023-02-19T01:08:44;26.33;;;17.45;;
74229;SDS011;62589;12.568;99.958;2023-02-19T01:11:11;25.65;;;18.95;;
74229;SDS011;62589;12.568;99.958;2023-02-19T01:13:39;24.83;;;17.77;;
74229;SDS011;62589;12.568;99.958;2023-02-19T01:16:12;24.00;;;18.73;;
74229;SDS011;62589;12.568;99.958;2023-02-19T01:18:41;21.70;;;17.25;;
74229;SDS011;62589;12.568;99.958;2023-02-19T01:21:09;22.40;;;17.52;;
74229;SDS011;62589;12.568;99.958;2023-02-19T01:23:40;26.60;;;18.50;;
74229;SDS011;62589;12.568;99.958;2023-02-19T01:26:10;23.30;;;17.35;;
74229;SDS011;62589;12.568;99.958;2023-02-19T01:28:39;24.35;;;16.83;;
74229;SDS011;62589;12.568;99.958;2023-02-19T01:31:07;21.13;;;16.50;;
74229;SDS011;62589;12.568;99.958;2023-02-19T01:33:37;25.35;;;15.93;;
74229;SDS011;62589;12.568;99.958;2023-02-19T01:36:04;22.23;;;16.02;;
74229;SDS011;62589;12.568;99.958;2023-02-19T01:38:31;20.45;;;16.10;;
74229;SDS011;62589;12.568;99.958;2023-02-19T01:41:02;20.65;;;15.52;;
74229;SDS011;62589;12.568;99.958;2023-02-19T01:43:31;23.25;;;16.38;;
74229;SDS011;62589;12.568;99.958;2023-02-19T01:45:58;22.92;;;16.63;;
74229;SDS011;62589;12.568;99.958;2023-02-19T01:48:26;23.25;;;17.33;;
74229;SDS011;62589;12.568;99.958;2023-02-19T01:51:10;24.67;;;17.83;;
74229;SDS011;62589;12.568;99.958;2023-02-19T01:53:41;23.10;;;17.25;;
74229;SDS011;62589;12.568;99.958;2023-02-19T01:56:10;24.25;;;17.88;;
74229;SDS011;62589;12.568;99.958;2023-02-19T01:58:41;21.48;;;16.13;;
74229;SDS011;62589;12.568;99.958;2023-02-19T02:01:08;24.02;;;17.15;;
74229;SDS011;62589;12.568;99.958;2023-02-19T02:03:36;23.80;;;17.08;;
74229;SDS011;62589;12.568;99.958;2023-02-19T02:06:11;19.33;;;16.02;;
74229;SDS011;62589;12.568;99.958;2023-02-19T02:08:46;21.42;;;16.15;;
74229;SDS011;62589;12.568;99.958;2023-02-19T02:11:27;21.40;;;16.38;;
74229;SDS011;62589;12.568;99.958;2023-02-19T02:13:54;19.65;;;15.57;;
74229;SDS011;62589;12.568;99.958;2023-02-19T02:16:23;22.08;;;16.30;;
74229;SDS011;62589;12.568;99.958;2023-02-19T02:19:18;21.67;;;15.00;;
74229;SDS011;62589;12.568;99.958;2023-02-19T02:22:06;24.58;;;17.20;;
74229;SDS011;62589;12.568;99.958;2023-02-19T02:36:32;20.10;;;16.10;;
74229;SDS011;62589;12.568;99.958;2023-02-19T02:39:02;27.70;;;18.10;;
74229;SDS011;62589;12.568;99.958;2023-02-19T02:41:32;24.02;;;17.80;;
74229;SDS011;62589;12.568;99.958;2023-02-19T02:43:59;27.15;;;19.00;;
74229;SDS011;62589;12.568;99.958;2023-02-19T02:46:27;26.92;;;18.92;;
74229;SDS011;62589;12.568;99.958;2023-02-19T02:49:00;23.65;;;18.05;;
74229;SDS011;62589;12.568;99.958;2023-02-19T02:51:32;24.60;;;17.58;;
74229;SDS011;62589;12.568;99.958;2023-02-19T02:54:15;25.67;;;17.55;;
74229;SDS011;62589;12.568;99.958;2023-02-19T02:59:26;24.02;;;18.30;;
74229;SDS011;62589;12.568;99.958;2023-02-19T03:10:53;27.58;;;20.77;;
74229;SDS011;62589;12.568;99.958;2023-02-19T03:13:46;29.95;;;20.65;;
74229;SDS011;62589;12.568;99.958;2023-02-19T03:16:30;25.30;;;19.25;;
74229;SDS011;62589;12.568;99.958;2023-02-19T03:19:13;28.50;;;20.77;;
74229;SDS011;62589;12.568;99.958;2023-02-19T03:21:51;28.00;;;20.25;;
74229;SDS011;62589;12.568;99.958;2023-02-19T03:24:40;29.85;;;21.60;;
74229;SDS011;62589;12.568;99.958;2023-02-19T03:27:26;32.47;;;20.42;;
74229;SDS011;62589;12.568;99.958;2023-02-19T03:29:56;32.03;;;21.80;;
74229;SDS011;62589;12.568;99.958;2023-02-19T03:32:28;30.00;;;21.40;;
74229;SDS011;62589;12.568;99.958;2023-02-19T03:35:10;30.65;;;20.77;;
74229;SDS011;62589;12.568;99.958;2023-02-19T03:37:45;35.22;;;21.55;;
74229;SDS011;62589;12.568;99.958;2023-02-19T03:40:21;30.88;;;21.40;;
74229;SDS011;62589;12.568;99.958;2023-02-19T03:43:02;30.60;;;21.30;;
74229;SDS011;62589;12.568;99.958;2023-02-19T03:48:40;24.98;;;21.27;;
74229;SDS011;62589;12.568;99.958;2023-02-19T03:51:41;29.23;;;21.63;;
74229;SDS011;62589;12.568;99.958;2023-02-19T03:54:12;31.40;;;22.90;;
74229;SDS011;62589;12.568;99.958;2023-02-19T03:56:59;30.08;;;21.85;;
74229;SDS011;62589;12.568;99.958;2023-02-19T03:59:42;33.05;;;21.83;;
74229;SDS011;62589;12.568;99.958;2023-02-19T04:02:34;31.85;;;22.23;;
74229;SDS011;62589;12.568;99.958;2023-02-19T04:05:17;30.73;;;22.08;;
74229;SDS011;62589;12.568;99.958;2023-02-19T04:07:49;29.33;;;22.23;;
74229;SDS011;62589;12.568;99.958;2023-02-19T04:10:19;32.63;;;22.75;;
74229;SDS011;62589;12.568;99.958;2023-02-19T04:12:51;32.28;;;23.02;;
74229;SDS011;62589;12.568;99.958;2023-02-19T04:15:30;30.80;;;22.77;;
74229;SDS011;62589;12.568;99.958;2023-02-19T04:17:59;28.55;;;21.38;;
74229;SDS011;62589;12.568;99.958;2023-02-19T04:20:34;28.35;;;21.63;;
74229;SDS011;62589;12.568;99.958;2023-02-19T04:23:04;29.13;;;22.37;;
74229;SDS011;62589;12.568;99.958;2023-02-19T04:25:31;27.33;;;20.60;;
74229;SDS011;62589;12.568;99.958;2023-02-19T04:27:59;32.33;;;21.58;;
74229;SDS011;62589;12.568;99.958;2023-02-19T04:30:25;29.05;;;21.48;;
74229;SDS011;62589;12.568;99.958;2023-02-19T04:32:52;27.95;;;21.77;;
74229;SDS011;62589;12.568;99.958;2023-02-19T04:35:18;33.75;;;22.10;;
74229;SDS011;62589;12.568;99.958;2023-02-19T04:37:45;26.33;;;21.88;;
74229;SDS011;62589;12.568;99.958;2023-02-19T04:40:11;33.38;;;22.23;;
74229;SDS011;62589;12.568;99.958;2023-02-19T04:42:37;28.98;;;21.70;;
74229;SDS011;62589;12.568;99.958;2023-02-19T04:45:04;28.02;;;21.85;;
74229;SDS011;62589;12.568;99.958;2023-02-19T04:47:31;26.42;;;20.55;;
74229;SDS011;62589;12.568;99.958;2023-02-19T04:49:57;24.70;;;20.08;;
74229;SDS011;62589;12.568;99.958;2023-02-19T04:52:24;28.90;;;21.48;;
74229;SDS011;62589;12.568;99.958;2023-02-19T04:54:50;30.83;;;20.73;;
74229;SDS011;62589;12.568;99.958;2023-02-19T04:57:16;30.92;;;20.42;;
74229;SDS011;62589;12.568;99.958;2023-02-19T04:59:44;29.60;;;21.95;;
74229;SDS011;62589;12.568;99.958;2023-02-19T05:02:11;29.67;;;21.67;;
74229;SDS011;62589;12.568;99.958;2023-02-19T05:04:38;29.75;;;21.33;;
74229;SDS011;62589;12.568;99.958;2023-02-19T05:07:04;29.08;;;23.05;;
74229;SDS011;62589;12.568;99.958;2023-02-19T05:09:30;28.90;;;22.40;;
74229;SDS011;62589;12.568;99.958;2023-02-19T05:11:57;30.75;;;23.58;;
74229;SDS011;62589;12.568;99.958;2023-02-19T05:14:23;29.63;;;23.70;;
74229;SDS011;62589;12.568;99.958;2023-02-19T05:16:49;31.08;;;23.35;;
74229;SDS011;62589;12.568;99.958;2023-02-19T05:19:16;32.40;;;25.10;;
74229;SDS011;62589;12.568;99.958;2023-02-19T05:21:42;35.28;;;25.48;;
74229;SDS011;62589;12.568;99.958;2023-02-19T05:24:09;36.60;;;26.48;;
74229;SDS011;62589;12.568;99.958;2023-02-19T05:26:35;35.85;;;26.20;;
74229;SDS011;62589;12.568;99.958;2023-02-19T05:29:01;34.85;;;26.15;;
74229;SDS011;62589;12.568;99.958;2023-02-19T05:31:28;36.90;;;26.90;;
74229;SDS011;62589;12.568;99.958;2023-02-19T05:33:55;34.40;;;26.23;;
74229;SDS011;62589;12.568;99.958;2023-02-19T05:36:21;34.88;;;26.77;;
74229;SDS011;62589;12.568;99.958;2023-02-19T05:38:52;38.65;;;28.67;;
74229;SDS011;62589;12.568;99.958;2023-02-19T05:41:21;39.90;;;26.77;;
74229;SDS011;62589;12.568;99.958;2023-02-19T05:43:49;34.38;;;26.58;;
74229;SDS011;62589;12.568;99.958;2023-02-19T05:46:17;34.45;;;25.00;;
74229;SDS011;62589;12.568;99.958;2023-02-19T05:48:45;35.30;;;24.45;;
74229;SDS011;62589;12.568;99.958;2023-02-19T05:51:14;33.30;;;24.52;;
74229;SDS011;62589;12.568;99.958;2023-02-19T05:53:43;36.60;;;25.15;;
74229;SDS011;62589;12.568;99.958;2023-02-19T05:59:16;32.05;;;24.65;;
74229;SDS011;62589;12.568;99.958;2023-02-19T06:01:48;37.33;;;25.30;;
74229;SDS011;62589;12.568;99.958;2023-02-19T06:04:16;34.03;;;24.83;;
74229;SDS011;62589;12.568;99.958;2023-02-19T06:06:44;36.17;;;26.15;;
74229;SDS011;62589;12.568;99.958;2023-02-19T06:09:12;36.17;;;25.27;;
74229;SDS011;62589;12.568;99.958;2023-02-19T06:11:39;33.65;;;24.80;;
74229;SDS011;62589;12.568;99.958;2023-02-19T06:14:05;32.85;;;24.38;;
74229;SDS011;62589;12.568;99.958;2023-02-19T06:16:32;33.85;;;23.15;;
74229;SDS011;62589;12.568;99.958;2023-02-19T06:19:00;35.15;;;24.23;;
74229;SDS011;62589;12.568;99.958;2023-02-19T06:21:28;30.27;;;22.88;;
74229;SDS011;62589;12.568;99.958;2023-02-19T06:23:54;33.90;;;23.90;;
74229;SDS011;62589;12.568;99.958;2023-02-19T06:26:21;33.72;;;25.30;;
74229;SDS011;62589;12.568;99.958;2023-02-19T06:28:49;30.13;;;22.67;;
74229;SDS011;62589;12.568;99.958;2023-02-19T06:31:17;30.90;;;22.63;;
74229;SDS011;62589;12.568;99.958;2023-02-19T06:33:46;25.65;;;21.65;;
74229;SDS011;62589;12.568;99.958;2023-02-19T06:36:15;29.05;;;22.90;;
74229;SDS011;62589;12.568;99.958;2023-02-19T06:38:43;29.80;;;23.77;;
74229;SDS011;62589;12.568;99.958;2023-02-19T06:41:10;30.08;;;22.85;;
74229;SDS011;62589;12.568;99.958;2023-02-19T06:43:37;29.92;;;23.58;;
74229;SDS011;62589;12.568;99.958;2023-02-19T06:46:05;29.75;;;22.75;;
74229;SDS011;62589;12.568;99.958;2023-02-19T06:48:32;29.42;;;23.98;;
74229;SDS011;62589;12.568;99.958;2023-02-19T06:50:59;31.85;;;23.95;;
74229;SDS011;62589;12.568;99.958;2023-02-19T06:53:25;29.95;;;23.15;;
74229;SDS011;62589;12.568;99.958;2023-02-19T06:56:05;30.45;;;24.45;;
74229;SDS011;62589;12.568;99.958;2023-02-19T06:58:45;29.52;;;22.45;;
74229;SDS011;62589;12.568;99.958;2023-02-19T07:01:11;29.75;;;22.70;;
74229;SDS011;62589;12.568;99.958;2023-02-19T07:03:38;28.60;;;22.55;;
74229;SDS011;62589;12.568;99.958;2023-02-19T07:06:04;29.90;;;22.63;;
74229;SDS011;62589;12.568;99.958;2023-02-19T07:08:31;30.10;;;23.35;;
74229;SDS011;62589;12.568;99.958;2023-02-19T07:10:57;29.48;;;23.10;;
74229;SDS011;62589;12.568;99.958;2023-02-19T07:13:24;28.13;;;21.83;;
74229;SDS011;62589;12.568;99.958;2023-02-19T07:15:51;31.90;;;22.98;;
74229;SDS011;62589;12.568;99.958;2023-02-19T07:18:23;34.58;;;24.13;;
74229;SDS011;62589;12.568;99.958;2023-02-19T07:20:50;30.95;;;23.83;;
74229;SDS011;62589;12.568;99.958;2023-02-19T07:23:16;29.27;;;22.85;;
74229;SDS011;62589;12.568;99.958;2023-02-19T07:25:42;31.80;;;22.52;;
74229;SDS011;62589;12.568;99.958;2023-02-19T07:28:09;27.30;;;23.38;;
74229;SDS011;62589;12.568;99.958;2023-02-19T07:30:35;29.83;;;23.40;;
74229;SDS011;62589;12.568;99.958;2023-02-19T07:33:01;29.10;;;21.95;;
74229;SDS011;62589;12.568;99.958;2023-02-19T07:35:28;33.15;;;23.42;;
74229;SDS011;62589;12.568;99.958;2023-02-19T07:37:54;29.10;;;22.73;;
74229;SDS011;62589;12.568;99.958;2023-02-19T07:40:21;28.30;;;22.42;;
74229;SDS011;62589;12.568;99.958;2023-02-19T07:42:47;28.73;;;21.90;;
74229;SDS011;62589;12.568;99.958;2023-02-19T07:45:13;26.00;;;22.35;;
74229;SDS011;62589;12.568;99.958;2023-02-19T07:47:40;27.13;;;21.50;;
74229;SDS011;62589;12.568;99.958;2023-02-19T07:50:06;25.98;;;20.80;;
74229;SDS011;62589;12.568;99.958;2023-02-19T07:52:33;26.10;;;21.33;;
74229;SDS011;62589;12.568;99.958;2023-02-19T07:54:59;28.48;;;21.58;;
74229;SDS011;62589;12.568;99.958;2023-02-19T07:57:29;28.90;;;22.35;;
74229;SDS011;62589;12.568;99.958;2023-02-19T07:59:55;33.17;;;23.88;;
74229;SDS011;62589;12.568;99.958;2023-02-19T08:02:23;27.10;;;22.42;;
74229;SDS011;62589;12.568;99.958;2023-02-19T08:05:01;26.40;;;20.85;;
74229;SDS011;62589;12.568;99.958;2023-02-19T08:07:34;29.85;;;21.08;;
74229;SDS011;62589;12.568;99.958;2023-02-19T08:10:01;28.02;;;21.80;;
74229;SDS011;62589;12.568;99.958;2023-02-19T08:12:40;25.23;;;21.23;;
74229;SDS011;62589;12.568;99.958;2023-02-19T08:15:19;25.85;;;20.50;;
74229;SDS011;62589;12.568;99.958;2023-02-19T08:17:45;25.13;;;20.00;;
74229;SDS011;62589;12.568;99.958;2023-02-19T08:20:11;26.85;;;19.95;;
74229;SDS011;62589;12.568;99.958;2023-02-19T08:22:38;24.83;;;19.85;;
74229;SDS011;62589;12.568;99.958;2023-02-19T08:25:05;26.48;;;19.70;;
74229;SDS011;62589;12.568;99.958;2023-02-19T08:27:31;32.45;;;22.48;;
74229;SDS011;62589;12.568;99.958;2023-02-19T08:29:58;28.33;;;21.92;;
74229;SDS011;62589;12.568;99.958;2023-02-19T08:32:24;26.17;;;20.58;;
74229;SDS011;62589;12.568;99.958;2023-02-19T08:34:50;30.83;;;21.50;;
74229;SDS011;62589;12.568;99.958;2023-02-19T08:37:17;31.80;;;23.65;;
74229;SDS011;62589;12.568;99.958;2023-02-19T08:39:43;29.33;;;22.25;;
74229;SDS011;62589;12.568;99.958;2023-02-19T08:42:09;27.08;;;21.13;;
74229;SDS011;62589;12.568;99.958;2023-02-19T08:44:36;28.17;;;21.83;;
74229;SDS011;62589;12.568;99.958;2023-02-19T08:47:02;27.73;;;21.67;;
74229;SDS011;62589;12.568;99.958;2023-02-19T08:49:30;26.48;;;20.67;;
74229;SDS011;62589;12.568;99.958;2023-02-19T08:51:56;28.30;;;20.92;;
74229;SDS011;62589;12.568;99.958;2023-02-19T08:54:22;25.63;;;21.88;;
74229;SDS011;62589;12.568;99.958;2023-02-19T08:56:49;35.10;;;23.13;;
74229;SDS011;62589;12.568;99.958;2023-02-19T08:59:15;26.50;;;20.88;;
74229;SDS011;62589;12.568;99.958;2023-02-19T09:01:41;24.73;;;21.13;;
74229;SDS011;62589;12.568;99.958;2023-02-19T09:04:10;32.60;;;22.70;;
74229;SDS011;62589;12.568;99.958;2023-02-19T09:06:37;26.17;;;21.17;;
74229;SDS011;62589;12.568;99.958;2023-02-19T09:09:03;28.05;;;20.70;;
74229;SDS011;62589;12.568;99.958;2023-02-19T09:11:30;29.38;;;20.88;;
74229;SDS011;62589;12.568;99.958;2023-02-19T09:13:56;28.98;;;21.05;;
74229;SDS011;62589;12.568;99.958;2023-02-19T09:16:23;25.98;;;20.75;;
74229;SDS011;62589;12.568;99.958;2023-02-19T09:18:49;35.47;;;23.63;;
74229;SDS011;62589;12.568;99.958;2023-02-19T09:21:15;29.42;;;22.38;;
74229;SDS011;62589;12.568;99.958;2023-02-19T09:23:51;29.27;;;21.80;;
74229;SDS011;62589;12.568;99.958;2023-02-19T09:26:17;25.95;;;20.30;;
74229;SDS011;62589;12.568;99.958;2023-02-19T09:28:44;26.88;;;22.00;;
74229;SDS011;62589;12.568;99.958;2023-02-19T09:31:12;29.45;;;21.65;;
74229;SDS011;62589;12.568;99.958;2023-02-19T09:33:42;28.38;;;21.65;;
74229;SDS011;62589;12.568;99.958;2023-02-19T09:36:10;27.98;;;21.55;;
74229;SDS011;62589;12.568;99.958;2023-02-19T09:38:38;29.15;;;21.73;;
74229;SDS011;62589;12.568;99.958;2023-02-19T09:41:05;27.15;;;21.63;;
74229;SDS011;62589;12.568;99.958;2023-02-19T09:43:37;25.67;;;20.17;;
74229;SDS011;62589;12.568;99.958;2023-02-19T09:49:01;24.13;;;20.05;;
74229;SDS011;62589;12.568;99.958;2023-02-19T09:51:33;27.17;;;20.13;;
74229;SDS011;62589;12.568;99.958;2023-02-19T09:54:01;26.35;;;20.98;;
74229;SDS011;62589;12.568;99.958;2023-02-19T09:56:29;27.52;;;20.25;;
74229;SDS011;62589;12.568;99.958;2023-02-19T09:58:56;28.55;;;21.42;;
74229;SDS011;62589;12.568;99.958;2023-02-19T10:01:25;26.67;;;21.15;;
74229;SDS011;62589;12.568;99.958;2023-02-19T10:03:55;26.08;;;20.17;;
74229;SDS011;62589;12.568;99.958;2023-02-19T10:06:23;25.92;;;19.95;;
74229;SDS011;62589;12.568;99.958;2023-02-19T10:08:52;26.08;;;20.38;;
74229;SDS011;62589;12.568;99.958;2023-02-19T10:11:26;25.35;;;20.00;;
74229;SDS011;62589;12.568;99.958;2023-02-19T10:14:03;25.25;;;20.02;;
74229;SDS011;62589;12.568;99.958;2023-02-19T10:16:33;23.38;;;18.65;;
74229;SDS011;62589;12.568;99.958;2023-02-19T10:19:07;26.30;;;20.15;;
74229;SDS011;62589;12.568;99.958;2023-02-19T10:21:37;23.58;;;19.30;;
74229;SDS011;62589;12.568;99.958;2023-02-19T10:24:04;22.40;;;18.60;;
74229;SDS011;62589;12.568;99.958;2023-02-19T10:26:31;20.95;;;17.08;;
74229;SDS011;62589;12.568;99.958;2023-02-19T10:29:04;25.80;;;18.48;;
74229;SDS011;62589;12.568;99.958;2023-02-19T10:31:31;23.17;;;19.23;;
74229;SDS011;62589;12.568;99.958;2023-02-19T10:33:58;25.45;;;20.75;;
74229;SDS011;62589;12.568;99.958;2023-02-19T10:36:34;27.40;;;21.30;;
74229;SDS011;62589;12.568;99.958;2023-02-19T10:39:16;32.53;;;23.40;;
74229;SDS011;62589;12.568;99.958;2023-02-19T10:41:57;34.05;;;23.75;;
74229;SDS011;62589;12.568;99.958;2023-02-19T10:44:25;27.35;;;22.33;;
74229;SDS011;62589;12.568;99.958;2023-02-19T10:46:57;39.15;;;27.67;;
74229;SDS011;62589;12.568;99.958;2023-02-19T10:49:27;42.25;;;27.75;;
74229;SDS011;62589;12.568;99.958;2023-02-19T10:52:19;34.13;;;23.98;;
74229;SDS011;62589;12.568;99.958;2023-02-19T10:54:54;30.25;;;22.40;;
74229;SDS011;62589;12.568;99.958;2023-02-19T10:57:40;35.20;;;24.40;;
74229;SDS011;62589;12.568;99.958;2023-02-19T11:00:20;32.90;;;22.15;;
74229;SDS011;62589;12.568;99.958;2023-02-19T11:06:01;25.38;;;20.85;;
74229;SDS011;62589;12.568;99.958;2023-02-19T11:08:33;28.80;;;20.45;;
74229;SDS011;62589;12.568;99.958;2023-02-19T11:11:23;28.15;;;21.25;;
74229;SDS011;62589;12.568;99.958;2023-02-19T11:13:54;28.30;;;21.83;;
74229;SDS011;62589;12.568;99.958;2023-02-19T11:16:22;32.20;;;21.67;;
74229;SDS011;62589;12.568;99.958;2023-02-19T11:19:02;29.63;;;22.23;;
74229;SDS011;62589;12.568;99.958;2023-02-19T11:21:28;25.20;;;20.65;;
74229;SDS011;62589;12.568;99.958;2023-02-19T11:23:59;27.95;;;21.40;;
74229;SDS011;62589;12.568;99.958;2023-02-19T11:26:30;30.10;;;20.17;;
74229;SDS011;62589;12.568;99.958;2023-02-19T11:29:11;28.30;;;20.75;;
74229;SDS011;62589;12.568;99.958;2023-02-19T11:31:44;26.77;;;18.95;;
74229;SDS011;62589;12.568;99.958;2023-02-19T11:39:38;25.30;;;19.20;;
74229;SDS011;62589;12.568;99.958;2023-02-19T11:44:58;23.75;;;18.70;;
74229;SDS011;62589;12.568;99.958;2023-02-19T11:53:29;23.55;;;18.70;;
74229;SDS011;62589;12.568;99.958;2023-02-19T12:01:55;19.40;;;16.73;;
74229;SDS011;62589;12.568;99.958;2023-02-19T12:10:23;21.92;;;17.25;;
74229;SDS011;62589;12.568;99.958;2023-02-19T12:19:02;21.67;;;17.30;;
74229;SDS011;62589;12.568;99.958;2023-02-19T12:22:03;25.27;;;18.02;;
74229;SDS011;62589;12.568;99.958;2023-02-19T12:24:49;24.05;;;17.95;;
74229;SDS011;62589;12.568;99.958;2023-02-19T12:33:40;28.85;;;20.10;;
74229;SDS011;62589;12.568;99.958;2023-02-19T12:36:28;25.95;;;19.80;;
74229;SDS011;62589;12.568;99.958;2023-02-19T12:42:19;23.48;;;18.55;;
74229;SDS011;62589;12.568;99.958;2023-02-19T12:45:23;22.20;;;18.08;;
74229;SDS011;62589;12.568;99.958;2023-02-19T13:02:37;21.63;;;17.42;;
74229;SDS011;62589;12.568;99.958;2023-02-19T13:08:13;20.42;;;16.83;;
74229;SDS011;62589;12.568;99.958;2023-02-19T13:10:50;23.13;;;17.80;;
74229;SDS011;62589;12.568;99.958;2023-02-19T13:13:22;21.23;;;17.15;;
74229;SDS011;62589;12.568;99.958;2023-02-19T13:15:55;23.42;;;17.48;;
74229;SDS011;62589;12.568;99.958;2023-02-19T13:21:17;23.10;;;17.88;;
74229;SDS011;62589;12.568;99.958;2023-02-19T13:23:58;21.30;;;16.90;;
74229;SDS011;62589;12.568;99.958;2023-02-19T13:35:35;22.90;;;17.38;;
74229;SDS011;62589;12.568;99.958;2023-02-19T13:38:19;21.35;;;17.20;;
74229;SDS011;62589;12.568;99.958;2023-02-19T13:40:55;21.60;;;17.77;;
74229;SDS011;62589;12.568;99.958;2023-02-19T13:43:34;23.55;;;17.67;;
74229;SDS011;62589;12.568;99.958;2023-02-19T13:46:05;20.33;;;17.23;;
74229;SDS011;62589;12.568;99.958;2023-02-19T13:48:38;27.67;;;18.50;;
74229;SDS011;62589;12.568;99.958;2023-02-19T13:54:18;23.33;;;17.60;;
74229;SDS011;62589;12.568;99.958;2023-02-19T13:59:43;28.00;;;18.90;;
74229;SDS011;62589;12.568;99.958;2023-02-19T14:02:12;25.20;;;19.38;;
74229;SDS011;62589;12.568;99.958;2023-02-19T14:04:52;24.35;;;19.52;;
74229;SDS011;62589;12.568;99.958;2023-02-19T14:12:55;28.30;;;21.92;;
74229;SDS011;62589;12.568;99.958;2023-02-19T14:21:13;52.25;;;36.00;;
74229;SDS011;62589;12.568;99.958;2023-02-19T14:23:43;48.53;;;34.03;;
74229;SDS011;62589;12.568;99.958;2023-02-19T14:26:15;40.33;;;29.30;;
74229;SDS011;62589;12.568;99.958;2023-02-19T14:28:45;44.05;;;28.85;;
74229;SDS011;62589;12.568;99.958;2023-02-19T14:31:23;36.67;;;27.10;;
74229;SDS011;62589;12.568;99.958;2023-02-19T14:33:59;36.63;;;25.50;;
74229;SDS011;62589;12.568;99.958;2023-02-19T14:39:15;29.63;;;21.83;;
74229;SDS011;62589;12.568;99.958;2023-02-19T14:42:07;34.65;;;22.15;;
74229;SDS011;62589;12.568;99.958;2023-02-19T14:47:31;29.50;;;21.48;;
74229;SDS011;62589;12.568;99.958;2023-02-19T14:50:04;29.85;;;21.55;;
74229;SDS011;62589;12.568;99.958;2023-02-19T14:52:52;29.85;;;22.10;;
74229;SDS011;62589;12.568;99.958;2023-02-19T14:55:30;28.80;;;22.25;;
74229;SDS011;62589;12.568;99.958;2023-02-19T15:00:44;33.00;;;21.35;;
74229;SDS011;62589;12.568;99.958;2023-02-19T15:06:00;29.80;;;22.02;;
74229;SDS011;62589;12.568;99.958;2023-02-19T15:08:37;32.00;;;22.42;;
74229;SDS011;62589;12.568;99.958;2023-02-19T15:11:11;30.63;;;22.80;;
74229;SDS011;62589;12.568;99.958;2023-02-19T15:13:46;36.22;;;25.13;;
74229;SDS011;62589;12.568;99.958;2023-02-19T15:16:17;44.17;;;27.65;;
74229;SDS011;62589;12.568;99.958;2023-02-19T15:18:45;40.42;;;28.50;;
74229;SDS011;62589;12.568;99.958;2023-02-19T15:21:33;44.58;;;31.05;;
74229;SDS011;62589;12.568;99.958;2023-02-19T15:24:04;47.17;;;31.85;;
74229;SDS011;62589;12.568;99.958;2023-02-19T15:26:35;49.17;;;32.75;;
74229;SDS011;62589;12.568;99.958;2023-02-19T15:29:12;47.92;;;33.42;;
74229;SDS011;62589;12.568;99.958;2023-02-19T15:31:43;48.65;;;33.58;;
74229;SDS011;62589;12.568;99.958;2023-02-19T15:34:29;51.05;;;34.65;;
74229;SDS011;62589;12.568;99.958;2023-02-19T15:36:57;48.90;;;34.20;;
74229;SDS011;62589;12.568;99.958;2023-02-19T15:39:34;51.88;;;35.05;;
74229;SDS011;62589;12.568;99.958;2023-02-19T15:42:08;53.83;;;35.15;;
74229;SDS011;62589;12.568;99.958;2023-02-19T15:53:05;55.63;;;37.63;;
74229;SDS011;62589;12.568;99.958;2023-02-19T15:58:42;55.80;;;36.60;;
74229;SDS011;62589;12.568;99.958;2023-02-19T16:04:05;56.55;;;36.38;;
74229;SDS011;62589;12.568;99.958;2023-02-19T16:09:38;52.47;;;35.75;;
74229;SDS011;62589;12.568;99.958;2023-02-19T16:14:46;49.55;;;32.08;;
74229;SDS011;62589;12.568;99.958;2023-02-19T16:17:15;49.70;;;33.58;;
74229;SDS011;62589;12.568;99.958;2023-02-19T16:22:41;48.28;;;30.98;;
74229;SDS011;62589;12.568;99.958;2023-02-19T16:25:20;44.63;;;31.33;;
74229;SDS011;62589;12.568;99.958;2023-02-19T16:28:12;49.60;;;34.20;;
74229;SDS011;62589;12.568;99.958;2023-02-19T16:30:56;42.53;;;32.42;;
74229;SDS011;62589;12.568;99.958;2023-02-19T16:33:45;43.22;;;31.77;;
74229;SDS011;62589;12.568;99.958;2023-02-19T16:42:09;49.97;;;31.50;;
74229;SDS011;62589;12.568;99.958;2023-02-19T16:44:37;37.58;;;29.05;;
74229;SDS011;62589;12.568;99.958;2023-02-19T16:47:04;45.42;;;30.05;;
74229;SDS011;62589;12.568;99.958;2023-02-19T16:49:38;39.70;;;29.75;;
74229;SDS011;62589;12.568;99.958;2023-02-19T16:52:06;39.97;;;27.80;;
74229;SDS011;62589;12.568;99.958;2023-02-19T16:54:37;41.95;;;29.27;;
74229;SDS011;62589;12.568;99.958;2023-02-19T16:57:04;36.17;;;27.15;;
74229;SDS011;62589;12.568;99.958;2023-02-19T16:59:30;36.42;;;27.23;;
74229;SDS011;62589;12.568;99.958;2023-02-19T17:01:57;35.95;;;26.92;;
74229;SDS011;62589;12.568;99.958;2023-02-19T17:04:23;39.10;;;28.30;;
74229;SDS011;62589;12.568;99.958;2023-02-19T17:06:50;38.00;;;23.55;;
74229;SDS011;62589;12.568;99.958;2023-02-19T17:09:16;29.08;;;20.65;;
74229;SDS011;62589;12.568;99.958;2023-02-19T17:11:43;28.55;;;20.30;;
74229;SDS011;62589;12.568;99.958;2023-02-19T17:14:09;28.70;;;19.83;;
74229;SDS011;62589;12.568;99.958;2023-02-19T17:16:36;30.00;;;20.67;;